createdAt,value
2024-03-05T00:01:00.062Z,0.3972222222222222
2024-03-05T00:01:58.826Z,0.19999999999999998
2024-03-05T00:03:01.072Z,0.08055555555555555
2024-03-05T00:03:59.849Z,0.2777777777777778
2024-03-05T00:05:01.143Z,0.11944444444444444
2024-03-05T00:05:59.838Z,0.11944444444444444
2024-03-05T00:07:00.978Z,0.19999999999999998
2024-03-05T00:07:59.689Z,0.19999999999999998
2024-03-05T00:09:00.517Z,0.3972222222222222
2024-03-05T00:09:59.567Z,0.31666666666666665
2024-03-05T00:11:00.362Z,0.47777777777777775
2024-03-05T00:11:59.392Z,0.15833333333333333
2024-03-05T00:13:00.271Z,0.11944444444444444
2024-03-05T00:13:59.008Z,0.31666666666666665
2024-03-05T00:14:59.693Z,0.19999999999999998
2024-03-05T00:16:01.061Z,0.19999999999999998
2024-03-05T00:16:59.855Z,0.35833333333333334
2024-03-05T00:18:01.122Z,0.2777777777777778
2024-03-05T00:18:59.829Z,0
2024-03-05T00:20:01.150Z,0.11944444444444444
2024-03-05T00:21:00.089Z,0.15833333333333333
2024-03-05T00:21:58.838Z,0.19999999999999998
2024-03-05T00:23:01.394Z,0.22222222222222224
2024-03-05T00:24:00.167Z,0.23888888888888887
2024-03-05T00:24:58.846Z,0.4361111111111111
2024-03-05T00:26:01.068Z,0.08055555555555555
2024-03-05T00:26:59.871Z,0.31666666666666665
2024-03-05T00:28:01.022Z,0.19999999999999998
2024-03-05T00:28:59.882Z,0.23888888888888887
2024-03-05T00:30:00.963Z,0.4361111111111111
2024-03-05T00:30:59.613Z,0.23888888888888887
2024-03-05T00:32:00.306Z,0.3972222222222222
2024-03-05T00:32:58.999Z,0.08055555555555555
2024-03-05T00:33:59.705Z,0.23888888888888887
2024-03-05T00:35:01.195Z,0.19999999999999998
2024-03-05T00:35:59.882Z,0.37777777777777777
2024-03-05T00:37:01.630Z,0.11944444444444444
2024-03-05T00:38:00.306Z,0.08055555555555555
2024-03-05T00:38:59.027Z,0.2777777777777778
2024-03-05T00:39:59.763Z,0.23888888888888887
2024-03-05T00:41:00.996Z,0.2833333333333333
2024-03-05T00:41:59.662Z,0.03888888888888889
2024-03-05T00:43:00.944Z,0.08055555555555555
2024-03-05T00:43:59.652Z,0
2024-03-05T00:45:01.019Z,0
2024-03-05T00:45:59.889Z,0.09722222222222221
2024-03-05T00:47:01.097Z,0.11944444444444444
2024-03-05T00:47:59.971Z,0
2024-03-05T00:48:58.684Z,0
2024-03-05T00:50:01.559Z,0.30833333333333335
2024-03-05T00:51:00.970Z,0
2024-03-05T00:51:59.629Z,0.08055555555555555
2024-03-05T00:53:00.377Z,0
2024-03-05T00:53:59.178Z,0
2024-03-05T00:54:59.893Z,0
2024-03-05T00:56:00.789Z,0
2024-03-05T00:56:59.551Z,0
2024-03-05T00:58:00.271Z,0
2024-03-05T00:58:58.975Z,0
2024-03-05T00:59:59.667Z,0.03888888888888889
2024-03-05T01:01:04.046Z,0.17222222222222222
2024-03-05T01:02:00.236Z,0.03888888888888889
2024-03-05T01:02:58.987Z,0.08055555555555555
2024-03-05T01:03:59.646Z,0.11944444444444444
2024-03-05T01:05:00.425Z,0.19999999999999998
2024-03-05T01:06:06.773Z,0.3972222222222222
2024-03-05T01:07:00.130Z,0.35833333333333334
2024-03-05T01:07:58.885Z,0.23888888888888887
2024-03-05T01:08:59.734Z,0.5555555555555556
2024-03-05T01:10:01.060Z,0.3972222222222222
2024-03-05T01:11:10.037Z,0.11944444444444444
2024-03-05T01:11:59.773Z,0.31666666666666665
2024-03-05T01:13:01.087Z,0.23888888888888887
2024-03-05T01:13:59.779Z,0.19999999999999998
2024-03-05T01:15:01.012Z,0.35833333333333334
2024-03-05T01:16:12.803Z,0.4361111111111111
2024-03-05T01:16:59.713Z,0.23888888888888887
2024-03-05T01:18:01.400Z,0.31666666666666665
2024-03-05T01:19:00.115Z,0.15833333333333333
2024-03-05T01:19:59.277Z,0.23888888888888887
2024-03-05T01:21:14.882Z,0.11944444444444444
2024-03-05T01:21:59.759Z,0.08055555555555555
2024-03-05T01:23:01.512Z,0.03888888888888889
2024-03-05T01:24:00.336Z,0
2024-03-05T01:24:59.029Z,0.19999999999999998
2024-03-05T01:25:59.764Z,0.08055555555555555
2024-03-05T01:27:00.983Z,0.03888888888888889
2024-03-05T01:27:59.950Z,0.08055555555555555
2024-03-05T01:28:58.720Z,0.15833333333333333
2024-03-05T01:30:01.512Z,0.11944444444444444
2024-03-05T01:31:00.846Z,0.2777777777777778
2024-03-05T01:31:59.825Z,0.15833333333333333
2024-03-05T01:33:01.003Z,0.15833333333333333
2024-03-05T01:33:59.781Z,0.15833333333333333
2024-03-05T01:35:01.645Z,0.11944444444444444
2024-03-05T01:36:00.431Z,0.19999999999999998
2024-03-05T01:36:59.188Z,0.2777777777777778
2024-03-05T01:37:59.979Z,0.23888888888888887
2024-03-05T01:38:58.704Z,0.23888888888888887
2024-03-05T01:40:00.961Z,0.11944444444444444
2024-03-05T01:40:59.780Z,0.2777777777777778
2024-03-05T01:42:01.020Z,0.19999999999999998
2024-03-05T01:42:59.685Z,0.11944444444444444
2024-03-05T01:44:00.530Z,0.15833333333333333
2024-03-05T01:44:59.245Z,0.3972222222222222
2024-03-05T01:46:00.016Z,0.19999999999999998
2024-03-05T01:46:58.764Z,0.23888888888888887
2024-03-05T01:48:01.023Z,0.15833333333333333
2024-03-05T01:48:59.779Z,0.2777777777777778
2024-03-05T01:50:01.080Z,0.2777777777777778
2024-03-05T01:50:59.835Z,0.15833333333333333
2024-03-05T01:52:01.051Z,0.2777777777777778
2024-03-05T01:52:59.934Z,0.11944444444444444
2024-03-05T01:53:58.682Z,0.11944444444444444
2024-03-05T01:55:00.535Z,0.2777777777777778
2024-03-05T01:55:59.301Z,0.31666666666666665
2024-03-05T01:57:00.017Z,0.11944444444444444
2024-03-05T01:57:58.700Z,0.15833333333333333
2024-03-05T01:59:01.968Z,0.08055555555555555
2024-03-05T02:00:01.001Z,0.17777777777777778
2024-03-05T02:01:00.017Z,0.15833333333333333
2024-03-05T02:01:58.768Z,0.2777777777777778
2024-03-05T02:03:01.441Z,0.21944444444444444
2024-03-05T02:04:00.340Z,0.11944444444444444
2024-03-05T02:04:59.086Z,0.06111111111111111
2024-03-05T02:05:59.800Z,0
2024-03-05T02:07:01.039Z,0
2024-03-05T02:07:59.754Z,0.08055555555555555
2024-03-05T02:09:00.457Z,0.19999999999999998
2024-03-05T02:09:59.096Z,0.1611111111111111
2024-03-05T02:10:59.941Z,0.08055555555555555
2024-03-05T02:11:59.899Z,0.15833333333333333
2024-03-05T02:12:59.761Z,0.15833333333333333
2024-03-05T02:14:00.511Z,0.11944444444444444
2024-03-05T02:14:59.231Z,0.1611111111111111
2024-03-05T02:15:59.919Z,0.19999999999999998
2024-03-05T02:17:01.009Z,0.19999999999999998
2024-03-05T02:18:00.038Z,0.35833333333333334
2024-03-05T02:18:58.751Z,0.15833333333333333
2024-03-05T02:20:01.533Z,0.24722222222222223
2024-03-05T02:21:00.396Z,0.35833333333333334
2024-03-05T02:21:59.098Z,0.19999999999999998
2024-03-05T02:22:59.836Z,0.11944444444444444
2024-03-05T02:24:00.557Z,0.19999999999999998
2024-03-05T02:25:04.693Z,0.30833333333333335
2024-03-05T02:25:59.954Z,0.23888888888888887
2024-03-05T02:26:58.665Z,0.19999999999999998
2024-03-05T02:28:00.448Z,0.08055555555555555
2024-03-05T02:28:59.171Z,0.15833333333333333
2024-03-05T02:30:06.325Z,0.11944444444444444
2024-03-05T02:30:59.947Z,0.19999999999999998
2024-03-05T02:31:58.683Z,0.08055555555555555
2024-03-05T02:33:01.024Z,0.15833333333333333
2024-03-05T02:33:59.760Z,0.19999999999999998
2024-03-05T02:35:10.411Z,0.26944444444444443
2024-03-05T02:36:01.040Z,0.47777777777777775
2024-03-05T02:36:59.798Z,0.19999999999999998
2024-03-05T02:38:01.401Z,0.22777777777777775
2024-03-05T02:39:00.163Z,0.19999999999999998
2024-03-05T02:40:12.054Z,0.35833333333333334
2024-03-05T02:41:00.011Z,0.15833333333333333
2024-03-05T02:41:58.808Z,0.31666666666666665
2024-03-05T02:43:01.027Z,0.3972222222222222
2024-03-05T02:43:59.786Z,0.15833333333333333
2024-03-05T02:45:16.160Z,0.14722222222222223
2024-03-05T02:46:00.205Z,0.2777777777777778
2024-03-05T02:46:58.974Z,0.2777777777777778
2024-03-05T02:47:59.675Z,0.31666666666666665
2024-03-05T02:49:00.367Z,0.31666666666666665
2024-03-05T02:49:59.074Z,0.2777777777777778
2024-03-05T02:50:59.783Z,0.11944444444444444
2024-03-05T02:52:01.015Z,0.15833333333333333
2024-03-05T02:52:59.906Z,0.2777777777777778
2024-03-05T02:53:58.662Z,0.35833333333333334
2024-03-05T02:55:00.521Z,0.11944444444444444
2024-03-05T02:55:59.274Z,0.15833333333333333
2024-03-05T02:57:00.040Z,0.15833333333333333
2024-03-05T02:57:59.014Z,0.2777777777777778
2024-03-05T02:58:59.728Z,0.08055555555555555
2024-03-05T03:00:00.964Z,0.47777777777777775
2024-03-05T03:00:59.806Z,0.08055555555555555
2024-03-05T03:02:01.388Z,0.036111111111111115
2024-03-05T03:03:00.177Z,0.15833333333333333
2024-03-05T03:03:58.950Z,0.11944444444444444
2024-03-05T03:04:59.698Z,0.11944444444444444
2024-03-05T03:06:01.014Z,0.15833333333333333
2024-03-05T03:06:59.779Z,0.2777777777777778
2024-03-05T03:08:01.085Z,0.08055555555555555
2024-03-05T03:08:59.900Z,0.15833333333333333
2024-03-05T03:10:01.483Z,0.10833333333333334
2024-03-05T03:11:00.286Z,0.23888888888888887
2024-03-05T03:11:59.021Z,0.11944444444444444
2024-03-05T03:12:59.809Z,0.19999999999999998
2024-03-05T03:14:00.542Z,0.3972222222222222
2024-03-05T03:14:59.639Z,0.4361111111111111
2024-03-05T03:16:00.263Z,0.03888888888888889
2024-03-05T03:16:58.929Z,0.15833333333333333
2024-03-05T03:17:59.683Z,0.31666666666666665
2024-03-05T03:19:00.374Z,0.19999999999999998
2024-03-05T03:19:59.189Z,0.11944444444444444
2024-03-05T03:20:59.960Z,0.31666666666666665
2024-03-05T03:21:58.641Z,0.15833333333333333
2024-03-05T03:23:00.460Z,0.15833333333333333
2024-03-05T03:23:59.175Z,0.23888888888888887
2024-03-05T03:24:59.899Z,0.19999999999999998
2024-03-05T03:26:01.148Z,0.23888888888888887
2024-03-05T03:27:00.002Z,0.11944444444444444
2024-03-05T03:27:58.687Z,0.11944444444444444
2024-03-05T03:29:00.564Z,0.2777777777777778
2024-03-05T03:29:59.380Z,0.15833333333333333
2024-03-05T03:31:00.142Z,0.4583333333333333
2024-03-05T03:31:58.963Z,0.31666666666666665
2024-03-05T03:32:59.813Z,0.19999999999999998
2024-03-05T03:34:00.539Z,0.2777777777777778
2024-03-05T03:34:59.270Z,0.23888888888888887
2024-03-05T03:35:59.958Z,0.17222222222222222
2024-03-05T03:36:58.628Z,0.23888888888888887
2024-03-05T03:38:00.460Z,0.2777777777777778
2024-03-05T03:38:59.251Z,0.19999999999999998
2024-03-05T03:40:00.001Z,0.19999999999999998
2024-03-05T03:40:58.885Z,0.3194444444444444
2024-03-05T03:42:00.949Z,0.19999999999999998
2024-03-05T03:42:59.715Z,0.2777777777777778
2024-03-05T03:44:00.501Z,0.2777777777777778
2024-03-05T03:44:59.297Z,0.35833333333333334
2024-03-05T03:46:01.550Z,0.24444444444444444
2024-03-05T03:47:00.040Z,0.15833333333333333
2024-03-05T03:47:58.767Z,0.2777777777777778
2024-03-05T03:49:00.462Z,0.11944444444444444
2024-03-05T03:49:59.253Z,0.31666666666666665
2024-03-05T03:51:05.836Z,0.075
2024-03-05T03:51:59.978Z,0.08055555555555555
2024-03-05T03:52:58.778Z,0.19999999999999998
2024-03-05T03:54:00.495Z,0
2024-03-05T03:54:59.160Z,0
2024-03-05T03:56:09.280Z,0
2024-03-05T03:57:00.097Z,0
2024-03-05T03:57:58.780Z,0.11944444444444444
2024-03-05T03:59:00.602Z,0.2777777777777778
2024-03-05T03:59:59.286Z,0.03888888888888889
2024-03-05T04:01:13.145Z,0.15833333333333333
2024-03-05T04:02:00.500Z,0.11944444444444444
2024-03-05T04:02:59.351Z,0.15833333333333333
2024-03-05T04:04:00.049Z,0.08055555555555555
2024-03-05T04:04:58.764Z,0
2024-03-05T04:06:16.461Z,0.1361111111111111
2024-03-05T04:07:01.136Z,0.19999999999999998
2024-03-05T04:08:02.583Z,0.08055555555555555
2024-03-05T04:08:59.887Z,0.19999999999999998
2024-03-05T04:10:01.010Z,0.31666666666666665
2024-03-05T04:10:59.736Z,0.31666666666666665
2024-03-05T04:12:01.024Z,0.23888888888888887
2024-03-05T04:12:59.802Z,0.15833333333333333
2024-03-05T04:14:04.119Z,0.08055555555555555
2024-03-05T04:15:00.961Z,0.15833333333333333
2024-03-05T04:15:59.726Z,0.2777777777777778
2024-03-05T04:17:01.082Z,0.2777777777777778
2024-03-05T04:17:59.786Z,0.11944444444444444
2024-03-05T04:19:00.534Z,0.19999999999999998
2024-03-05T04:19:59.338Z,0.35833333333333334
2024-03-05T04:21:00.149Z,0.23888888888888887
2024-03-05T04:21:58.826Z,0.2777777777777778
2024-03-05T04:23:01.329Z,0.15833333333333333
2024-03-05T04:24:00.074Z,0.23888888888888887
2024-03-05T04:24:58.835Z,0.11944444444444444
2024-03-05T04:26:01.178Z,0.08055555555555555
2024-03-05T04:26:59.984Z,0.15833333333333333
2024-03-05T04:27:58.816Z,0.23888888888888887
2024-03-05T04:29:00.562Z,0.08055555555555555
2024-03-05T04:29:59.605Z,0.31666666666666665
2024-03-05T04:31:00.307Z,0.11944444444444444
2024-03-05T04:31:58.996Z,0.4361111111111111
2024-03-05T04:33:00.446Z,0.4361111111111111
2024-03-05T04:33:59.212Z,0.31666666666666665
2024-03-05T04:34:59.981Z,0.2777777777777778
2024-03-05T04:35:58.699Z,0.2777777777777778
2024-03-05T04:37:01.354Z,0.23888888888888887
2024-03-05T04:38:00.221Z,0.19999999999999998
2024-03-05T04:38:59.040Z,0.11944444444444444
2024-03-05T04:39:59.762Z,0.11944444444444444
2024-03-05T04:41:01.046Z,0
2024-03-05T04:41:59.785Z,0
2024-03-05T04:43:01.052Z,0.08055555555555555
2024-03-05T04:43:59.819Z,0.2777777777777778
2024-03-05T04:45:01.021Z,0.3972222222222222
2024-03-05T04:45:59.662Z,0.35833333333333334
2024-03-05T04:47:00.388Z,0.2972222222222222
2024-03-05T04:47:59.135Z,0.11944444444444444
2024-03-05T04:48:59.911Z,0.15833333333333333
2024-03-05T04:50:01.113Z,0.03888888888888889
2024-03-05T04:50:59.832Z,0.19999999999999998
2024-03-05T04:52:00.991Z,0.15833333333333333
2024-03-05T04:52:59.739Z,0.15833333333333333
2024-03-05T04:54:00.457Z,0.08055555555555555
2024-03-05T04:54:59.128Z,0.03888888888888889
2024-03-05T04:55:59.978Z,0.15833333333333333
2024-03-05T04:56:58.742Z,0.09722222222222221
2024-03-05T04:58:01.355Z,0.21388888888888888
2024-03-05T04:59:00.156Z,0.31666666666666665
2024-03-05T04:59:58.875Z,0.2777777777777778
2024-03-05T05:01:01.039Z,0.2777777777777778
2024-03-05T05:01:59.853Z,0.41944444444444445
2024-03-05T05:02:58.602Z,0.31666666666666665
2024-03-05T05:04:00.595Z,0.47777777777777775
2024-03-05T05:04:59.435Z,0.11944444444444444
2024-03-05T05:06:00.131Z,0.11944444444444444
2024-03-05T05:07:03.212Z,0.1361111111111111
2024-03-05T05:07:59.919Z,0.15833333333333333
2024-03-05T05:08:58.608Z,0.15833333333333333
2024-03-05T05:10:00.974Z,0
2024-03-05T05:10:59.805Z,0.15833333333333333
2024-03-05T05:12:07.521Z,0.19722222222222222
2024-03-05T05:13:01.000Z,0.19999999999999998
2024-03-05T05:13:59.783Z,0.2777777777777778
2024-03-05T05:15:06.080Z,0.2777777777777778
2024-03-05T05:16:01.039Z,0.19999999999999998
2024-03-05T05:17:10.263Z,0.19999999999999998
2024-03-05T05:18:01.100Z,0.2777777777777778
2024-03-05T05:18:59.806Z,0.08055555555555555
2024-03-05T05:20:02.109Z,0.15833333333333333
2024-03-05T05:21:01.051Z,0.11944444444444444
2024-03-05T05:22:13.858Z,0.11944444444444444
2024-03-05T05:22:59.776Z,0.15833333333333333
2024-03-05T05:24:00.500Z,0.23888888888888887
2024-03-05T05:24:59.210Z,0.31666666666666665
2024-03-05T05:26:00.045Z,0.11944444444444444
2024-03-05T05:26:58.739Z,0.11944444444444444
2024-03-05T05:28:00.951Z,0
2024-03-05T05:28:59.702Z,0.15833333333333333
2024-03-05T05:30:08.647Z,0.11944444444444444
2024-03-05T05:31:01.167Z,0.4361111111111111
2024-03-05T05:31:59.737Z,0.4361111111111111
2024-03-05T05:33:02.613Z,0.3
2024-03-05T05:34:00.259Z,0.2777777777777778
2024-03-05T05:34:59.208Z,0.15833333333333333
2024-03-05T05:35:59.909Z,0.19999999999999998
2024-03-05T05:37:00.963Z,0.2777777777777778
2024-03-05T05:37:59.782Z,0.15833333333333333
2024-03-05T05:39:00.547Z,0.08055555555555555
2024-03-05T05:39:59.222Z,0.23888888888888887
2024-03-05T05:40:59.990Z,0.2777777777777778
2024-03-05T05:41:58.722Z,0.08055555555555555
2024-03-05T05:43:00.995Z,0.2777777777777778
2024-03-05T05:43:59.887Z,0.11944444444444444
2024-03-05T05:44:58.661Z,0.15833333333333333
2024-03-05T05:46:00.401Z,0.35833333333333334
2024-03-05T05:46:59.330Z,0.19999999999999998
2024-03-05T05:48:00.157Z,0.23888888888888887
2024-03-05T05:48:58.974Z,0.08055555555555555
2024-03-05T05:49:59.799Z,0.23888888888888887
2024-03-05T05:51:01.042Z,0.23888888888888887
2024-03-05T05:51:59.800Z,0.19999999999999998
2024-03-05T05:53:01.478Z,0.19999999999999998
2024-03-05T05:54:00.400Z,0
2024-03-05T05:54:59.036Z,0.08055555555555555
2024-03-05T05:55:59.785Z,0.15833333333333333
2024-03-05T05:57:00.865Z,0
2024-03-05T05:57:59.769Z,0
2024-03-05T05:59:00.652Z,0.08055555555555555
2024-03-05T05:59:59.412Z,0.2777777777777778
2024-03-05T06:01:00.093Z,0.11944444444444444
2024-03-05T06:01:59.136Z,0.15833333333333333
2024-03-05T06:03:00.205Z,0.31666666666666665
2024-03-05T06:03:58.961Z,0.11944444444444444
2024-03-05T06:04:59.716Z,0.11944444444444444
2024-03-05T06:06:00.957Z,0.08055555555555555
2024-03-05T06:07:03.783Z,0.19999999999999998
2024-03-05T06:07:59.771Z,0.15833333333333333
2024-03-05T06:09:00.500Z,0.08055555555555555
2024-03-05T06:09:59.403Z,0.11944444444444444
2024-03-05T06:11:00.252Z,0.15833333333333333
2024-03-05T06:11:59.021Z,0.23888888888888887
2024-03-05T06:12:59.859Z,0.3972222222222222
2024-03-05T06:13:58.774Z,0.5555555555555556
2024-03-05T06:15:00.982Z,0.47777777777777775
2024-03-05T06:15:59.762Z,0.3972222222222222
2024-03-05T06:17:01.084Z,0.2777777777777778
2024-03-05T06:17:59.861Z,0.33888888888888885
2024-03-05T06:19:00.593Z,0.31666666666666665
2024-03-05T06:20:00.108Z,0.31666666666666665
2024-03-05T06:20:58.963Z,0.5166666666666667
2024-03-05T06:21:59.701Z,0.47777777777777775
2024-03-05T06:23:01.087Z,0.3333333333333333
2024-03-05T06:23:59.826Z,0.4361111111111111
2024-03-05T06:25:00.969Z,0.5166666666666667
2024-03-05T06:26:00.379Z,0.19999999999999998
2024-03-05T06:26:59.659Z,0.31666666666666665
2024-03-05T06:28:00.746Z,0.18333333333333335
2024-03-05T06:28:59.483Z,0.3972222222222222
2024-03-05T06:30:00.244Z,1.152777777777778
2024-03-05T06:30:59.048Z,0.35833333333333334
2024-03-05T06:31:59.748Z,0.35833333333333334
2024-03-05T06:33:01.099Z,0.5527777777777778
2024-03-05T06:33:59.848Z,0.5166666666666667
2024-03-05T06:35:01.395Z,0.8333333333333333
2024-03-05T06:36:00.309Z,0.2777777777777778
2024-03-05T06:36:58.981Z,0.4361111111111111
2024-03-05T06:38:02.791Z,0.11111111111111112
2024-03-05T06:38:59.701Z,0.3972222222222222
2024-03-05T06:40:01.056Z,0.31666666666666665
2024-03-05T06:40:59.859Z,0.3972222222222222
2024-03-05T06:42:00.971Z,0.47777777777777775
2024-03-05T06:43:05.949Z,0.2833333333333333
2024-03-05T06:43:59.707Z,0.23888888888888887
2024-03-05T06:45:01.107Z,0.23888888888888887
2024-03-05T06:45:59.857Z,0.5166666666666667
2024-03-05T06:47:01.114Z,0.23888888888888887
2024-03-05T06:48:12.343Z,0.5555555555555556
2024-03-05T06:48:59.861Z,0.3972222222222222
2024-03-05T06:50:01.080Z,0.15833333333333333
2024-03-05T06:50:59.789Z,0.47777777777777775
2024-03-05T06:52:01.017Z,0.5972222222222222
2024-03-05T06:53:10.236Z,0.875
2024-03-05T06:54:00.615Z,0.7138888888888888
2024-03-05T06:54:59.404Z,0.7138888888888888
2024-03-05T06:56:00.188Z,0.5166666666666667
2024-03-05T06:56:58.863Z,0.31666666666666665
2024-03-05T06:58:13.600Z,0.8111111111111111
2024-03-05T06:59:00.762Z,0.11944444444444444
2024-03-05T06:59:59.555Z,0.23888888888888887
2024-03-05T07:01:00.267Z,0.19999999999999998
2024-03-05T07:01:59.318Z,0.3972222222222222
2024-03-05T07:03:14.666Z,0.6361111111111111
2024-03-05T07:04:00.136Z,0.7138888888888888
2024-03-05T07:04:58.853Z,0.3972222222222222
2024-03-05T07:06:01.120Z,0.47777777777777775
2024-03-05T07:06:59.769Z,0.3972222222222222
2024-03-05T07:08:01.088Z,0.35833333333333334
2024-03-05T07:08:59.890Z,0.5555555555555556
2024-03-05T07:10:01.028Z,0.35833333333333334
2024-03-05T07:11:00.006Z,0.675
2024-03-05T07:11:58.790Z,0.5166666666666667
2024-03-05T07:13:01.079Z,0.47777777777777775
2024-03-05T07:13:59.923Z,0.35833333333333334
2024-03-05T07:14:58.701Z,0.23888888888888887
2024-03-05T07:16:00.968Z,0.23888888888888887
2024-03-05T07:16:59.795Z,0.7138888888888888
2024-03-05T07:18:00.977Z,0.2777777777777778
2024-03-05T07:18:59.784Z,0.31666666666666665
2024-03-05T07:20:01.458Z,0.4361111111111111
2024-03-05T07:21:00.322Z,0.31666666666666665
2024-03-05T07:21:59.063Z,0.875
2024-03-05T07:22:59.912Z,0.3972222222222222
2024-03-05T07:23:58.758Z,0.19999999999999998
2024-03-05T07:25:01.023Z,0.5166666666666667
2024-03-05T07:26:01.179Z,0.4361111111111111
2024-03-05T07:27:04.899Z,0.35833333333333334
2024-03-05T07:27:59.841Z,0.2777777777777778
2024-03-05T07:29:00.877Z,0.19999999999999998
2024-03-05T07:29:59.950Z,0.37777777777777777
2024-03-05T07:30:58.694Z,0.5972222222222222
2024-03-05T07:32:01.233Z,0.875
2024-03-05T07:33:00.007Z,0.9944444444444445
2024-03-05T07:33:58.731Z,0.4361111111111111
2024-03-05T07:35:01.029Z,0.9138888888888889
2024-03-05T07:35:59.754Z,0.4361111111111111
2024-03-05T07:37:01.001Z,0.4361111111111111
2024-03-05T07:37:59.803Z,0.5166666666666667
2024-03-05T07:39:00.704Z,0.8333333333333333
2024-03-05T07:39:59.481Z,1.2138888888888888
2024-03-05T07:41:00.325Z,1.35
2024-03-05T07:41:59.090Z,1.0333333333333334
2024-03-05T07:42:59.801Z,0.7138888888888888
2024-03-05T07:44:00.838Z,1.1916666666666667
2024-03-05T07:44:59.733Z,0.7555555555555555
2024-03-05T07:46:01.080Z,0.2777777777777778
2024-03-05T07:47:00.258Z,1.2305555555555554
2024-03-05T07:47:59.041Z,0.5972222222222222
2024-03-05T07:48:59.824Z,0.4361111111111111
2024-03-05T07:50:01.073Z,0.6361111111111111
2024-03-05T07:50:59.801Z,1.2305555555555554
2024-03-05T07:52:00.994Z,0.9138888888888889
2024-03-05T07:52:59.702Z,0.9944444444444445
2024-03-05T07:54:00.759Z,0.9527777777777778
2024-03-05T07:54:59.484Z,1.3111111111111111
2024-03-05T07:56:00.351Z,1.0333333333333334
2024-03-05T07:56:59.076Z,1.2722222222222221
2024-03-05T07:57:59.892Z,0.5555555555555556
2024-03-05T07:59:00.624Z,0.33888888888888885
2024-03-05T07:59:59.410Z,0.5166666666666667
2024-03-05T08:01:00.095Z,0.7555555555555555
2024-03-05T08:01:58.795Z,0.5555555555555556
2024-03-05T08:03:00.962Z,1.2305555555555554
2024-03-05T08:03:59.638Z,0.6527777777777778
2024-03-05T08:05:01.117Z,1.1111111111111112
2024-03-05T08:05:59.851Z,0.675
2024-03-05T08:07:01.076Z,0.5166666666666667
2024-03-05T08:07:59.821Z,0.5166666666666667
2024-03-05T08:09:00.571Z,0.6388888888888888
2024-03-05T08:09:59.230Z,0.47777777777777775
2024-03-05T08:11:00.029Z,1.788888888888889
2024-03-05T08:11:58.904Z,0.9944444444444445
2024-03-05T08:13:01.040Z,1.3111111111111111
2024-03-05T08:14:00.181Z,1.0444444444444443
2024-03-05T08:14:58.986Z,0.9138888888888889
2024-03-05T08:15:59.706Z,0.9527777777777778
2024-03-05T08:17:01.446Z,0.9083333333333333
2024-03-05T08:18:00.137Z,1.1111111111111112
2024-03-05T08:19:03.258Z,0.9833333333333333
2024-03-05T08:19:59.987Z,1.1916666666666667
2024-03-05T08:20:58.823Z,0.6361111111111111
2024-03-05T08:22:00.569Z,1.4305555555555556
2024-03-05T08:22:59.735Z,0.8333333333333333
2024-03-05T08:24:05.783Z,0.6527777777777778
2024-03-05T08:25:01.385Z,0.7916666666666666
2024-03-05T08:26:00.122Z,0.7944444444444444
2024-03-05T08:26:58.844Z,0.5555555555555556
2024-03-05T08:28:01.063Z,0.9527777777777778
2024-03-05T08:29:08.170Z,0.23888888888888887
2024-03-05T08:30:01.029Z,0.5166666666666667
2024-03-05T08:30:59.694Z,0.5972222222222222
2024-03-05T08:32:00.992Z,0.8333333333333333
2024-03-05T08:32:59.745Z,0.3972222222222222
2024-03-05T08:34:09.968Z,0.19999999999999998
2024-03-05T08:35:00.555Z,0.31666666666666665
2024-03-05T08:35:59.355Z,0.6361111111111111
2024-03-05T08:37:00.136Z,0.7944444444444444
2024-03-05T08:37:59.011Z,1.3111111111111111
2024-03-05T08:39:11.653Z,0.8333333333333333
2024-03-05T08:39:59.769Z,0.4361111111111111
2024-03-05T08:41:00.988Z,0.7944444444444444
2024-03-05T08:41:59.682Z,0.35833333333333334
2024-03-05T08:43:00.407Z,0.875
2024-03-05T08:44:14.276Z,0.35833333333333334
2024-03-05T08:45:00.128Z,0.4361111111111111
2024-03-05T08:45:58.874Z,0.5972222222222222
2024-03-05T08:47:01.550Z,0.7944444444444444
2024-03-05T08:48:00.572Z,1.35
2024-03-05T08:48:59.332Z,0.5555555555555556
2024-03-05T08:50:00.216Z,0.47777777777777775
2024-03-05T08:50:59.158Z,0.7944444444444444
2024-03-05T08:51:59.962Z,0.875
2024-03-05T08:52:58.775Z,1.55
2024-03-05T08:54:00.566Z,1.1916666666666667
2024-03-05T08:54:59.253Z,0.23888888888888887
2024-03-05T08:56:00.019Z,0.3972222222222222
2024-03-05T08:56:58.754Z,0.9138888888888889
2024-03-05T08:58:00.532Z,0.35833333333333334
2024-03-05T08:58:59.219Z,0.9944444444444445
2024-03-05T09:00:00.910Z,1.0722222222222222
2024-03-05T09:01:00.184Z,0.7555555555555555
2024-03-05T09:01:58.898Z,0.47777777777777775
2024-03-05T09:03:01.041Z,0.47777777777777775
2024-03-05T09:03:59.712Z,0.47777777777777775
2024-03-05T09:05:01.180Z,0.7944444444444444
2024-03-05T09:06:00.053Z,1.0333333333333334
2024-03-05T09:06:58.771Z,0.6361111111111111
2024-03-05T09:08:01.085Z,1.3111111111111111
2024-03-05T09:08:59.840Z,0.6361111111111111
2024-03-05T09:10:01.009Z,0.875
2024-03-05T09:10:59.814Z,0.2777777777777778
2024-03-05T09:12:01.052Z,0.2777777777777778